createdAt,value
2023-03-01T00:01:10.282Z,-0.30
2023-03-01T00:03:37.547Z,-0.30
2023-03-01T00:06:05.488Z,-0.40
2023-03-01T00:08:33.997Z,-0.30
2023-03-01T00:11:14.917Z,-0.30
2023-03-01T00:13:43.021Z,-0.30
2023-03-01T00:16:14.229Z,-0.40
2023-03-01T00:18:41.967Z,-0.40
2023-03-01T00:21:09.049Z,-0.40
2023-03-01T00:23:36.839Z,-0.40
2023-03-01T00:26:07.575Z,-0.40
2023-03-01T00:28:34.782Z,-0.40
2023-03-01T00:31:07.073Z,-0.50
2023-03-01T00:33:34.545Z,-0.50
2023-03-01T00:36:02.455Z,-0.50
2023-03-01T00:38:29.639Z,-0.50
2023-03-01T00:40:56.707Z,-0.60
2023-03-01T00:43:23.748Z,-0.60
2023-03-01T00:45:50.853Z,-0.60
2023-03-01T00:48:17.959Z,-0.60
2023-03-01T00:50:44.985Z,-0.60
2023-03-01T00:53:11.958Z,-0.60
2023-03-01T00:55:39.034Z,-0.60
2023-03-01T00:58:06.047Z,-0.60
2023-03-01T01:00:33.044Z,-0.60
2023-03-01T01:03:00.062Z,-0.60
2023-03-01T01:05:27.137Z,-0.70
2023-03-01T01:07:54.120Z,-0.70
2023-03-01T01:10:22.279Z,-0.60
2023-03-01T01:12:49.335Z,-0.70
2023-03-01T01:15:17.662Z,-0.70
2023-03-01T01:17:44.893Z,-0.70
2023-03-01T01:20:12.585Z,-0.70
2023-03-01T01:22:39.625Z,-0.70
2023-03-01T01:25:06.977Z,-0.80
2023-03-01T01:27:34.023Z,-0.80
2023-03-01T01:30:01.041Z,-0.80
2023-03-01T01:32:28.063Z,-0.80
2023-03-01T01:34:55.144Z,-0.90
2023-03-01T01:37:22.464Z,-0.90
2023-03-01T01:39:49.507Z,-0.90
2023-03-01T01:42:20.138Z,-1.00
2023-03-01T01:44:48.409Z,-0.90
2023-03-01T01:47:23.278Z,-0.90
2023-03-01T01:49:57.307Z,-0.90
2023-03-01T01:52:36.957Z,-0.90
2023-03-01T01:55:09.441Z,-0.90
2023-03-01T01:57:49.825Z,-1.00
2023-03-01T02:00:20.360Z,-1.00
2023-03-01T02:02:53.171Z,-1.00
2023-03-01T02:05:44.421Z,-1.00
2023-03-01T02:08:14.073Z,-1.00
2023-03-01T02:10:42.257Z,-1.00
2023-03-01T02:13:10.236Z,-1.00
2023-03-01T02:15:39.396Z,-1.00
2023-03-01T02:18:08.009Z,-1.00
2023-03-01T02:20:58.452Z,-1.00
2023-03-01T02:23:26.706Z,-0.90
2023-03-01T02:26:16.396Z,-0.90
2023-03-01T02:28:46.206Z,-0.90
2023-03-01T02:31:36.466Z,-1.00
2023-03-01T02:34:05.720Z,-1.00
2023-03-01T02:36:37.836Z,-1.00
2023-03-01T02:39:07.709Z,-1.00
2023-03-01T02:41:39.737Z,-0.90
2023-03-01T02:44:07.150Z,-0.90
2023-03-01T02:46:34.393Z,-0.90
2023-03-01T02:49:01.567Z,-0.90
2023-03-01T02:51:46.839Z,-0.80
2023-03-01T02:54:37.918Z,-0.70
2023-03-01T02:57:05.117Z,-0.70
2023-03-01T02:59:40.514Z,-0.60
2023-03-01T03:02:09.009Z,-0.50
2023-03-01T03:04:36.106Z,-0.50
2023-03-01T03:07:03.228Z,-0.40
2023-03-01T03:09:30.265Z,-0.30
2023-03-01T03:11:57.232Z,-0.30
2023-03-01T03:14:24.695Z,-0.20
2023-03-01T03:16:52.100Z,-0.10
2023-03-01T03:19:20.863Z,-0.10
2023-03-01T03:21:48.299Z,0.00
2023-03-01T03:24:15.343Z,0.00
2023-03-01T03:26:42.385Z,0.00
2023-03-01T03:29:09.374Z,0.00
2023-03-01T03:31:36.393Z,0.00
2023-03-01T03:34:03.508Z,0.10
2023-03-01T03:36:30.662Z,0.10
2023-03-01T03:38:57.880Z,0.10
2023-03-01T03:41:24.951Z,0.20
2023-03-01T03:43:52.061Z,0.20
2023-03-01T03:46:19.066Z,0.30
2023-03-01T03:48:47.148Z,0.30
2023-03-01T03:51:16.245Z,0.30
2023-03-01T03:53:44.196Z,0.20
2023-03-01T03:56:11.749Z,0.20
2023-03-01T03:58:39.224Z,0.20
2023-03-01T04:01:06.948Z,0.20
2023-03-01T04:03:36.199Z,0.30
2023-03-01T04:06:04.101Z,0.30
2023-03-01T04:08:31.128Z,0.30
2023-03-01T04:11:01.658Z,0.30
2023-03-01T04:13:28.779Z,0.30
2023-03-01T04:15:56.273Z,0.30
2023-03-01T04:18:26.180Z,0.20
2023-03-01T04:20:56.532Z,0.20
2023-03-01T04:23:24.053Z,0.20
2023-03-01T04:25:56.882Z,0.20
2023-03-01T04:28:36.047Z,0.20
2023-03-01T04:31:19.391Z,0.20
2023-03-01T04:33:49.677Z,0.20
2023-03-01T04:36:18.720Z,0.20
2023-03-01T04:38:49.416Z,0.20
2023-03-01T04:41:18.731Z,0.20
2023-03-01T04:43:46.432Z,0.30
2023-03-01T04:46:16.325Z,0.30
2023-03-01T04:48:45.470Z,0.40
2023-03-01T04:51:14.841Z,0.40
2023-03-01T04:53:42.338Z,0.50
2023-03-01T04:56:10.049Z,0.50
2023-03-01T04:58:37.091Z,0.50
2023-03-01T05:01:16.383Z,0.60
2023-03-01T05:03:48.529Z,0.60
2023-03-01T05:06:16.336Z,0.60
2023-03-01T05:08:44.124Z,0.60
2023-03-01T05:11:11.619Z,0.70
2023-03-01T05:13:40.307Z,0.70
2023-03-01T05:16:12.548Z,0.70
2023-03-01T05:18:41.416Z,0.70
2023-03-01T05:21:14.271Z,0.70
2023-03-01T05:23:41.846Z,0.70
2023-03-01T05:26:25.857Z,0.70
2023-03-01T05:28:53.164Z,0.70
2023-03-01T05:31:20.237Z,0.70
2023-03-01T05:33:47.304Z,0.70
2023-03-01T05:36:14.303Z,0.70
2023-03-01T05:38:41.316Z,0.80
2023-03-01T05:41:16.178Z,0.80
2023-03-01T05:43:44.728Z,0.90
2023-03-01T05:46:13.779Z,0.90
2023-03-01T05:48:40.791Z,0.90
2023-03-01T05:51:07.862Z,1.00
2023-03-01T05:53:34.917Z,1.10
2023-03-01T05:56:05.106Z,1.10
2023-03-01T05:58:32.133Z,1.00
2023-03-01T06:00:59.208Z,1.10
2023-03-01T06:03:26.740Z,1.10
2023-03-01T06:05:58.075Z,1.20
2023-03-01T06:08:28.016Z,1.20
2023-03-01T06:10:55.219Z,1.20
2023-03-01T06:13:22.369Z,1.20
2023-03-01T06:15:49.436Z,1.30
2023-03-01T06:18:16.596Z,1.40
2023-03-01T06:20:43.665Z,1.40
2023-03-01T06:23:10.788Z,1.40
2023-03-01T06:25:38.627Z,1.50
2023-03-01T06:28:05.713Z,1.50
2023-03-01T06:30:33.161Z,1.50
2023-03-01T06:33:04.187Z,1.50
2023-03-01T06:35:31.966Z,1.60
2023-03-01T06:38:01.246Z,1.60
2023-03-01T06:40:29.162Z,1.60
2023-03-01T06:42:56.239Z,1.60
2023-03-01T06:45:23.279Z,1.70
2023-03-01T06:47:50.640Z,1.70
2023-03-01T06:50:19.050Z,1.80
2023-03-01T06:55:14.856Z,2.60
2023-03-01T06:57:41.907Z,2.70
2023-03-01T07:00:09.943Z,2.70
2023-03-01T07:02:36.960Z,2.70
2023-03-01T07:05:04.243Z,2.70
2023-03-01T07:07:31.394Z,2.80
2023-03-01T07:09:58.471Z,2.80
2023-03-01T07:12:25.478Z,2.80
2023-03-01T07:14:52.536Z,2.90
2023-03-01T07:17:20.007Z,2.90
2023-03-01T07:19:47.051Z,2.90
2023-03-01T07:22:14.084Z,3.00
2023-03-01T07:24:42.788Z,3.00
2023-03-01T07:27:09.856Z,3.00
2023-03-01T07:29:39.730Z,3.10
2023-03-01T07:32:07.301Z,3.10
2023-03-01T07:34:34.476Z,3.10
2023-03-01T07:37:01.489Z,3.10
2023-03-01T07:39:28.613Z,3.20
2023-03-01T07:41:55.620Z,3.20
2023-03-01T07:44:22.770Z,3.20
2023-03-01T07:46:49.884Z,3.20
2023-03-01T07:49:16.880Z,3.20
2023-03-01T07:51:44.823Z,3.30
2023-03-01T07:54:11.988Z,3.30
2023-03-01T07:56:39.024Z,3.30
2023-03-01T07:59:06.048Z,3.30
2023-03-01T08:01:33.101Z,3.40
2023-03-01T08:04:00.172Z,3.40
2023-03-01T08:06:27.381Z,3.40
2023-03-01T08:08:57.716Z,3.50
2023-03-01T08:11:24.882Z,3.50
2023-03-01T08:13:53.920Z,3.60
2023-03-01T08:16:21.826Z,3.80
2023-03-01T08:18:48.941Z,3.90
2023-03-01T08:21:18.288Z,4.00
2023-03-01T08:23:45.386Z,4.10
2023-03-01T08:26:21.075Z,4.20
2023-03-01T08:28:50.045Z,4.30
2023-03-01T08:31:25.859Z,4.30
2023-03-01T08:33:58.404Z,4.40
2023-03-01T08:36:31.537Z,4.40
2023-03-01T08:38:59.397Z,4.60
2023-03-01T08:41:27.106Z,4.60
2023-03-01T08:43:59.733Z,4.70
2023-03-01T08:46:37.061Z,4.80
2023-03-01T08:49:22.315Z,4.90
2023-03-01T08:51:49.899Z,4.90
2023-03-01T08:54:20.192Z,4.90
2023-03-01T08:56:47.792Z,5.00
2023-03-01T08:59:16.524Z,5.10
2023-03-01T09:01:46.333Z,5.20
2023-03-01T09:04:15.456Z,5.30
2023-03-01T09:06:43.175Z,5.30
2023-03-01T09:09:17.095Z,5.40
2023-03-01T09:11:47.278Z,5.50
2023-03-01T09:14:15.320Z,5.50
2023-03-01T09:16:42.522Z,5.60
2023-03-01T09:19:09.616Z,5.60
2023-03-01T09:21:40.654Z,5.70
2023-03-01T09:24:16.184Z,5.70
2023-03-01T09:26:44.134Z,5.80
2023-03-01T09:29:11.427Z,5.90
2023-03-01T09:31:38.590Z,6.20
2023-03-01T09:34:06.601Z,6.40
2023-03-01T09:36:34.587Z,6.60
2023-03-01T09:39:02.614Z,6.70
2023-03-01T09:41:41.425Z,6.80
2023-03-01T09:44:47.233Z,6.80
2023-03-01T09:47:21.301Z,6.80
2023-03-01T09:50:13.245Z,7.00
2023-03-01T09:52:42.831Z,7.00
2023-03-01T09:55:14.449Z,6.90
2023-03-01T09:58:07.868Z,6.70
2023-03-01T10:00:48.585Z,6.80
2023-03-01T10:03:32.178Z,6.90
2023-03-01T10:06:13.538Z,7.00
2023-03-01T10:08:58.946Z,7.10
2023-03-01T10:11:29.547Z,7.30
2023-03-01T10:14:06.366Z,7.40
2023-03-01T10:16:44.301Z,7.50
2023-03-01T10:19:21.654Z,7.50
2023-03-01T10:21:51.944Z,7.60
2023-03-01T10:24:22.634Z,7.80
2023-03-01T10:26:56.247Z,7.80
2023-03-01T10:29:50.003Z,7.80
2023-03-01T10:32:18.450Z,7.80
2023-03-01T10:34:45.523Z,7.90
2023-03-01T10:37:15.129Z,7.90
2023-03-01T10:39:58.760Z,7.90
2023-03-01T10:42:37.167Z,7.80
2023-03-01T10:45:34.399Z,7.80
2023-03-01T10:48:07.135Z,7.70
2023-03-01T10:50:34.441Z,7.70
2023-03-01T10:53:05.686Z,7.70
2023-03-01T10:55:35.892Z,7.80
2023-03-01T10:58:23.428Z,7.90
2023-03-01T11:00:59.072Z,8.00
2023-03-01T11:03:35.660Z,8.00
2023-03-01T11:06:06.758Z,8.10
2023-03-01T11:08:38.252Z,8.10
2023-03-01T11:11:17.985Z,8.20
2023-03-01T11:13:53.907Z,8.30
2023-03-01T11:16:36.839Z,8.50
2023-03-01T11:19:12.902Z,8.70
2023-03-01T11:21:55.759Z,8.80
2023-03-01T11:24:38.035Z,8.90
2023-03-01T11:27:17.809Z,9.00
2023-03-01T11:29:54.093Z,9.10
2023-03-01T11:32:24.639Z,9.00
2023-03-01T11:35:19.911Z,8.90
2023-03-01T11:38:04.876Z,8.80
2023-03-01T11:41:10.522Z,8.70
2023-03-01T11:44:15.350Z,8.70
2023-03-01T11:47:08.339Z,8.80
2023-03-01T11:49:38.465Z,8.70
2023-03-01T11:52:24.743Z,8.80
2023-03-01T11:55:09.796Z,8.90
2023-03-01T11:58:18.115Z,9.00
2023-03-01T12:00:50.921Z,9.10
2023-03-01T12:03:45.636Z,9.10
2023-03-01T12:06:36.349Z,9.20
2023-03-01T12:09:09.167Z,9.30
2023-03-01T12:12:04.050Z,9.40
2023-03-01T12:14:53.262Z,9.40
2023-03-01T12:17:46.527Z,9.30
2023-03-01T12:20:22.654Z,9.30
2023-03-01T12:23:34.277Z,9.30
2023-03-01T12:26:04.368Z,9.20
2023-03-01T12:29:07.531Z,9.20
2023-03-01T12:31:44.387Z,9.10
2023-03-01T12:34:29.946Z,9.10
2023-03-01T12:37:26.342Z,9.10
2023-03-01T12:40:35.657Z,9.10
2023-03-01T12:43:02.648Z,9.20
2023-03-01T12:46:06.465Z,9.40
2023-03-01T12:49:01.944Z,9.50
2023-03-01T12:51:32.563Z,9.40
2023-03-01T12:54:03.017Z,9.40
2023-03-01T12:56:35.978Z,9.30
2023-03-01T12:59:19.094Z,9.30
2023-03-01T13:01:55.330Z,9.20
2023-03-01T13:04:55.455Z,9.20
2023-03-01T13:07:40.253Z,9.30
2023-03-01T13:10:25.552Z,9.30
2023-03-01T13:13:14.465Z,9.30
2023-03-01T13:15:41.796Z,9.30
2023-03-01T13:18:20.465Z,9.30
2023-03-01T13:21:02.608Z,9.30
2023-03-01T13:23:33.973Z,9.30
2023-03-01T13:26:03.800Z,9.40
2023-03-01T13:28:36.746Z,9.60
2023-03-01T13:31:09.680Z,9.50
2023-03-01T13:33:47.319Z,9.60
2023-03-01T13:36:30.644Z,9.70
2023-03-01T13:38:59.445Z,9.90
2023-03-01T13:41:44.810Z,10.10
2023-03-01T13:44:25.620Z,10.20
2023-03-01T13:46:56.468Z,10.40
2023-03-01T13:49:31.431Z,10.40
2023-03-01T13:52:03.458Z,10.60
2023-03-01T13:54:34.329Z,10.60
2023-03-01T13:57:02.904Z,10.60
2023-03-01T13:59:31.371Z,10.50
2023-03-01T14:02:00.961Z,10.50
2023-03-01T14:04:36.891Z,10.50
2023-03-01T14:07:25.440Z,10.40
2023-03-01T14:09:59.250Z,10.30
2023-03-01T14:12:37.932Z,10.30
2023-03-01T14:15:20.098Z,10.30
2023-03-01T14:17:56.260Z,10.30
2023-03-01T14:20:26.907Z,10.30
2023-03-01T14:22:56.841Z,10.20
2023-03-01T14:25:35.719Z,10.20
2023-03-01T14:28:22.565Z,10.20
2023-03-01T14:30:52.675Z,10.10
2023-03-01T14:33:27.534Z,10.00
2023-03-01T14:36:01.815Z,10.00
2023-03-01T14:38:32.067Z,10.10
2023-03-01T14:41:05.016Z,10.10
2023-03-01T14:43:34.277Z,10.10
2023-03-01T14:46:01.550Z,10.10
2023-03-01T14:48:29.955Z,10.00
2023-03-01T14:50:57.464Z,10.00
2023-03-01T14:53:34.138Z,9.90
2023-03-01T14:56:05.026Z,9.90
2023-03-01T14:58:34.539Z,9.90
2023-03-01T15:01:05.051Z,9.90
2023-03-01T15:03:36.452Z,9.90
2023-03-01T15:06:05.465Z,9.90
2023-03-01T15:08:36.566Z,9.90
2023-03-01T15:11:18.137Z,9.90
2023-03-01T15:13:47.545Z,9.90
2023-03-01T15:16:24.128Z,9.80
2023-03-01T15:18:57.716Z,9.80
2023-03-01T15:21:36.353Z,9.80
2023-03-01T15:24:28.578Z,9.80
2023-03-01T15:27:03.015Z,9.70
2023-03-01T15:29:32.494Z,9.70
2023-03-01T15:32:21.877Z,9.50
2023-03-01T15:34:49.257Z,9.50
2023-03-01T15:37:39.787Z,9.40
2023-03-01T15:40:33.520Z,9.30
2023-03-01T15:43:07.776Z,9.20
2023-03-01T15:45:35.307Z,9.10
2023-03-01T15:48:07.518Z,9.00
2023-03-01T15:50:37.097Z,8.90
2023-03-01T15:53:13.052Z,8.80
2023-03-01T15:55:40.199Z,8.70
2023-03-01T15:58:13.932Z,8.70
2023-03-01T16:00:48.781Z,8.60
2023-03-01T16:03:25.266Z,8.60
2023-03-01T16:05:52.785Z,8.40
2023-03-01T16:08:20.011Z,8.40
2023-03-01T16:10:49.480Z,8.30
2023-03-01T16:13:16.973Z,8.30
2023-03-01T16:15:45.255Z,8.20
2023-03-01T16:18:12.956Z,8.20
2023-03-01T16:20:41.274Z,8.10
2023-03-01T16:23:09.918Z,8.10
2023-03-01T16:25:37.565Z,8.00
2023-03-01T16:28:10.408Z,7.90
2023-03-01T16:30:39.245Z,7.80
2023-03-01T16:33:23.994Z,7.80
2023-03-01T16:35:53.511Z,7.70
2023-03-01T16:38:20.849Z,7.60
2023-03-01T16:40:53.162Z,7.60
2023-03-01T16:43:20.378Z,7.50
2023-03-01T16:45:47.805Z,7.40
2023-03-01T16:48:15.692Z,7.40
2023-03-01T16:50:43.303Z,7.30
2023-03-01T16:53:10.895Z,7.20
2023-03-01T16:55:39.025Z,7.10
2023-03-01T16:58:14.504Z,7.10
2023-03-01T17:00:41.675Z,7.00
2023-03-01T17:03:10.397Z,6.90
2023-03-01T17:05:41.608Z,6.80
2023-03-01T17:08:08.937Z,6.80
2023-03-01T17:10:36.164Z,6.70
2023-03-01T17:13:03.323Z,6.70
2023-03-01T17:15:31.014Z,6.60
2023-03-01T17:17:58.253Z,6.50
2023-03-01T17:20:25.847Z,6.50
2023-03-01T17:22:53.772Z,6.40
2023-03-01T17:25:21.505Z,6.40
2023-03-01T17:27:50.492Z,6.30
2023-03-01T17:30:18.350Z,6.20
2023-03-01T17:32:45.780Z,6.10
2023-03-01T17:35:15.775Z,6.00
2023-03-01T17:37:46.683Z,5.90
2023-03-01T17:40:14.663Z,5.90
2023-03-01T17:42:42.071Z,5.90
2023-03-01T17:45:10.667Z,5.80
2023-03-01T17:47:38.221Z,5.80
2023-03-01T17:50:08.067Z,5.70
2023-03-01T17:52:35.127Z,5.70
2023-03-01T17:55:02.751Z,5.60
2023-03-01T17:57:30.044Z,5.60
2023-03-01T17:59:57.842Z,5.50
2023-03-01T18:02:26.827Z,5.50
2023-03-01T18:04:57.366Z,5.40
2023-03-01T18:07:28.517Z,5.30
2023-03-01T18:09:57.236Z,5.20
2023-03-01T18:12:25.137Z,5.20
2023-03-01T18:14:55.985Z,5.10
2023-03-01T18:17:27.156Z,5.10
2023-03-01T18:19:57.157Z,5.00
2023-03-01T18:22:25.120Z,5.00
2023-03-01T18:25:02.650Z,4.90
2023-03-01T18:27:31.729Z,4.90
2023-03-01T18:29:59.791Z,4.90
2023-03-01T18:32:28.245Z,4.80
2023-03-01T18:34:56.230Z,4.80
2023-03-01T18:37:23.755Z,4.80
2023-03-01T18:39:55.062Z,4.70
2023-03-01T18:42:24.137Z,4.60
2023-03-01T18:44:52.087Z,4.60
2023-03-01T18:47:20.116Z,4.50
2023-03-01T18:49:48.113Z,4.40
2023-03-01T18:52:17.337Z,4.40
2023-03-01T18:54:44.987Z,4.30
2023-03-01T18:57:12.886Z,4.30
2023-03-01T18:59:41.611Z,4.30
2023-03-01T19:02:11.701Z,4.20
2023-03-01T19:04:43.181Z,4.20
2023-03-01T19:07:10.934Z,4.20
2023-03-01T19:09:39.940Z,4.20
2023-03-01T19:12:08.006Z,4.20
2023-03-01T19:14:36.063Z,4.20
2023-03-01T19:17:06.236Z,4.10
2023-03-01T19:19:34.188Z,4.00
2023-03-01T19:22:08.583Z,4.00
2023-03-01T19:24:36.730Z,4.00
2023-03-01T19:27:04.660Z,3.90
2023-03-01T19:29:33.986Z,3.90
2023-03-01T19:32:03.295Z,3.80
2023-03-01T19:34:31.286Z,3.70
2023-03-01T19:36:59.224Z,3.70
2023-03-01T19:39:28.103Z,3.60
2023-03-01T19:41:57.761Z,3.60
2023-03-01T19:44:25.345Z,3.50
2023-03-01T19:46:54.595Z,3.50
2023-03-01T19:49:22.613Z,3.40
2023-03-01T19:51:50.619Z,3.40
2023-03-01T19:54:22.402Z,3.40
2023-03-01T19:56:51.625Z,3.40
2023-03-01T19:59:24.921Z,3.40
2023-03-01T20:01:53.415Z,3.40
2023-03-01T20:04:21.518Z,3.40
2023-03-01T20:06:50.579Z,3.30
2023-03-01T20:09:21.782Z,3.30
2023-03-01T20:11:50.792Z,3.30
2023-03-01T20:14:21.121Z,3.20
2023-03-01T20:16:51.525Z,3.20
2023-03-01T20:19:19.716Z,3.20
2023-03-01T20:21:50.980Z,3.20
2023-03-01T20:24:19.070Z,3.10
2023-03-01T20:26:48.857Z,3.10
2023-03-01T20:29:16.871Z,3.00
2023-03-01T20:31:45.128Z,3.00
2023-03-01T20:34:13.107Z,3.00
2023-03-01T20:36:42.275Z,3.00
2023-03-01T20:39:12.181Z,3.00
2023-03-01T20:41:41.128Z,3.00
2023-03-01T20:44:09.933Z,2.90
2023-03-01T20:46:38.273Z,2.80
2023-03-01T20:49:07.738Z,2.80
2023-03-01T20:51:35.419Z,2.70
2023-03-01T20:54:03.411Z,2.70
2023-03-01T20:56:31.553Z,2.60
2023-03-01T20:58:59.382Z,2.60
2023-03-01T21:01:27.607Z,2.60
2023-03-01T21:03:56.246Z,2.60
2023-03-01T21:06:23.796Z,2.60
2023-03-01T21:08:51.952Z,2.50
2023-03-01T21:11:20.008Z,2.50
2023-03-01T21:13:47.409Z,2.40
2023-03-01T21:16:14.810Z,2.40
2023-03-01T21:18:43.185Z,2.30
2023-03-01T21:21:13.997Z,2.30
2023-03-01T21:23:42.825Z,2.30
2023-03-01T21:26:22.058Z,2.30
2023-03-01T21:28:51.265Z,2.30
2023-03-01T21:31:22.247Z,2.40
2023-03-01T21:33:54.987Z,2.40
2023-03-01T21:36:24.242Z,2.50
2023-03-01T21:38:52.880Z,2.60
2023-03-01T21:41:25.087Z,2.70
2023-03-01T21:43:53.846Z,2.80
2023-03-01T21:46:23.842Z,2.90
2023-03-01T21:48:52.847Z,3.00
2023-03-01T21:51:21.990Z,3.10
2023-03-01T21:53:50.655Z,3.10
2023-03-01T21:56:19.999Z,3.20
2023-03-01T21:58:47.151Z,3.20
2023-03-01T22:01:17.040Z,3.30
2023-03-01T22:03:45.945Z,3.40
2023-03-01T22:06:19.769Z,3.40
2023-03-01T22:08:49.006Z,3.40
2023-03-01T22:11:20.083Z,3.50
2023-03-01T22:13:51.824Z,3.60
2023-03-01T22:16:27.916Z,3.60
2023-03-01T22:18:55.963Z,3.70
2023-03-01T22:21:24.812Z,3.70
2023-03-01T22:23:53.869Z,3.70
2023-03-01T22:26:39.709Z,3.70
2023-03-01T22:29:12.673Z,3.70
2023-03-01T22:31:40.809Z,3.70
2023-03-01T22:34:09.299Z,3.70
2023-03-01T22:36:36.667Z,3.70
2023-03-01T22:39:04.453Z,3.70
2023-03-01T22:41:45.113Z,3.70
2023-03-01T22:44:22.998Z,3.70
2023-03-01T22:46:50.441Z,3.70
2023-03-01T22:49:18.300Z,3.70
2023-03-01T22:51:47.730Z,3.70
2023-03-01T22:54:15.813Z,3.70
2023-03-01T22:56:43.316Z,3.70
2023-03-01T22:59:13.626Z,3.70
2023-03-01T23:01:42.476Z,3.60
2023-03-01T23:04:09.626Z,3.60
2023-03-01T23:06:50.359Z,3.60
2023-03-01T23:09:32.858Z,3.60
2023-03-01T23:12:01.821Z,3.60
2023-03-01T23:14:32.393Z,3.60
2023-03-01T23:17:03.508Z,3.60
2023-03-01T23:19:31.026Z,3.60
2023-03-01T23:21:58.313Z,3.60
2023-03-01T23:24:31.635Z,3.60
2023-03-01T23:27:01.504Z,3.50
2023-03-01T23:29:28.945Z,3.50
2023-03-01T23:31:57.877Z,3.50
2023-03-01T23:34:26.102Z,3.50
2023-03-01T23:36:54.768Z,3.50
2023-03-01T23:39:22.472Z,3.50
2023-03-01T23:41:49.513Z,3.60
2023-03-01T23:44:19.112Z,3.60
2023-03-01T23:46:47.611Z,3.60
2023-03-01T23:49:17.915Z,3.60
2023-03-01T23:51:47.841Z,3.70
2023-03-01T23:54:17.870Z,3.60
2023-03-01T23:56:45.978Z,3.60
2023-03-01T23:59:19.536Z,3.70
